ESMT

Halmstad Airport

Halmstad, Sweden
TAF ESMT 260212Z 2603/2612 28010KT 9999 BKN020 TEMPO 2603/2609 BKN008 TEMPO 2609/2612 SHRA BKN012 SCT020CB
Issued Valid From Valid To
Apr-26 @ 02:12 UTC
(an hour ago)
Apr-26 @ 03:00 UTC
(26 minutes ago)
Apr-26 @ 12:00 UTC
(in 9 hours)
Apr-26 @ 03:00 to Apr-26 @ 12:00
TAF ESMT 260212Z 2603/2612 28010KT 9999 BKN020
Wind Visibility Clouds
280° at 10 knots 10,000+ meters
  • Broken at 2,000' AGL
Temporary Apr-26 @ 03:00 to Apr-26 @ 09:00
TEMPO 2603/2609 BKN008
Clouds
  • Broken at 800' AGL
Temporary Apr-26 @ 09:00 to Apr-26 @ 12:00
TEMPO 2609/2612 SHRA BKN012 SCT020CB
Clouds Conditions
  • Broken at 1,200' AGL
  • Scattered at 2,000' AGL
  • Rain
TAF ESMT 260212Z 2603/2612 28010KT 9999 BKN020 TEMPO 2603/2609 BKN008 TEMPO 2609/2612 SHRA BKN012 SCT020CB
Issued Apr-26 @ 02:12 UTC
(an hour ago)
Valid From Apr-26 @ 03:00 UTC
(26 minutes ago)
Valid To Apr-26 @ 12:00 UTC
(in 9 hours)
Apr-26 @ 03:00 - Apr-26 @ 12:00
Wind Visibility
280° at 10 knots 10,000+ meters
Clouds
  • Broken at 2,000' AGL
Temporary Apr-26 @ 03:00 - Apr-26 @ 09:00
Clouds
  • Broken at 800' AGL
Temporary Apr-26 @ 09:00 - Apr-26 @ 12:00
Clouds
  • Broken at 1,200' AGL
  • Scattered at 2,000' AGL
Conditions
  • Rain